createdAt,value
2023-03-22T00:02:04.285Z,100980.25
2023-03-22T00:04:31.284Z,100982.09
2023-03-22T00:06:57.855Z,100981.22
2023-03-22T00:09:24.387Z,100975.03
2023-03-22T00:11:51.131Z,100975.03
2023-03-22T00:14:18.685Z,100966.16
2023-03-22T00:16:46.333Z,100966.16
2023-03-22T00:19:12.986Z,100965.31
2023-03-22T00:21:39.540Z,100963.47
2023-03-22T00:24:06.546Z,100959.97
2023-03-22T00:26:33.340Z,100962.63
2023-03-22T00:29:00.742Z,100961.78
2023-03-22T00:31:27.363Z,100960.94
2023-03-22T00:33:53.951Z,100954.75
2023-03-22T00:36:20.445Z,100954.75
2023-03-22T00:38:46.950Z,100953.03
2023-03-22T00:41:19.358Z,100944.16
2023-03-22T00:43:47.518Z,100944.16
2023-03-22T00:46:16.167Z,100941.50
2023-03-22T00:48:42.872Z,100929.09
2023-03-22T00:51:09.829Z,100929.09
2023-03-22T00:53:36.964Z,100922.06
2023-03-22T00:56:05.580Z,100916.72
2023-03-22T00:58:32.571Z,100924.75
2023-03-22T01:00:59.243Z,100909.53
2023-03-22T01:03:25.938Z,100914.88
2023-03-22T01:05:56.756Z,100902.47
2023-03-22T01:08:23.959Z,100895.28
2023-03-22T01:10:50.888Z,100899.66
2023-03-22T01:13:18.119Z,100888.94
2023-03-22T01:15:45.075Z,100887.09
2023-03-22T01:18:11.763Z,100883.56
2023-03-22T01:20:38.686Z,100879.06
2023-03-22T01:23:06.201Z,100875.56
2023-03-22T01:25:32.760Z,100866.50
2023-03-22T01:27:59.346Z,100870.19
2023-03-22T01:30:26.020Z,100865.69
2023-03-22T01:32:52.636Z,100859.47
2023-03-22T01:35:19.191Z,100854.97
2023-03-22T01:37:45.826Z,100853.97
2023-03-22T01:40:13.971Z,100844.13
2023-03-22T01:42:40.887Z,100839.75
2023-03-22T01:45:27.593Z,100828.34
2023-03-22T01:48:08.835Z,100825.66
2023-03-22T01:50:38.811Z,100820.16
2023-03-22T01:53:08.158Z,100821.16
2023-03-22T01:55:35.926Z,100816.63
2023-03-22T01:58:04.342Z,100810.44
2023-03-22T02:00:31.909Z,100810.44
2023-03-22T02:02:58.908Z,100805.25
2023-03-22T02:05:26.412Z,100801.69
2023-03-22T02:07:53.184Z,100802.56
2023-03-22T02:10:23.505Z,100793.66
2023-03-22T02:13:11.870Z,100785.63
2023-03-22T02:16:00.017Z,100778.59
2023-03-22T02:18:57.004Z,100781.28
2023-03-22T02:21:29.118Z,100774.94
2023-03-22T02:24:20.755Z,100766.34
2023-03-22T02:26:49.957Z,100765.22
2023-03-22T02:29:22.583Z,100759.19
2023-03-22T02:32:13.761Z,100756.63
2023-03-22T02:35:08.294Z,100761.16
2023-03-22T02:38:02.719Z,100755.78
2023-03-22T02:40:39.896Z,100752.97
2023-03-22T02:43:09.704Z,100759.19
2023-03-22T02:45:50.946Z,100755.78
2023-03-22T02:48:57.906Z,100754.13
2023-03-22T02:51:33.230Z,100752.00
2023-03-22T02:54:28.741Z,100740.56
2023-03-22T02:57:11.881Z,100746.75
2023-03-22T02:59:41.578Z,100750.28
2023-03-22T03:02:11.802Z,100745.91
2023-03-22T03:04:44.478Z,100737.22
2023-03-22T03:07:14.325Z,100739.06
2023-03-22T03:09:43.218Z,100742.56
2023-03-22T03:12:34.054Z,100743.53
2023-03-22T03:15:00.582Z,100739.06
2023-03-22T03:18:04.627Z,100738.34
2023-03-22T03:20:31.145Z,100737.34
2023-03-22T03:23:07.274Z,100734.00
2023-03-22T03:26:16.060Z,100734.13
2023-03-22T03:29:01.688Z,100736.66
2023-03-22T03:31:31.406Z,100730.47
2023-03-22T03:34:14.437Z,100727.94
2023-03-22T03:36:46.921Z,100726.97
2023-03-22T03:39:16.466Z,100725.97
2023-03-22T03:41:46.331Z,100724.28
2023-03-22T03:44:13.887Z,100725.97
2023-03-22T03:46:41.788Z,100728.63
2023-03-22T03:49:10.079Z,100724.13
2023-03-22T03:51:47.304Z,100729.63
2023-03-22T03:54:13.918Z,100730.47
2023-03-22T03:56:40.668Z,100724.28
2023-03-22T03:59:08.320Z,100725.13
2023-03-22T04:01:35.779Z,100727.78
2023-03-22T04:04:02.438Z,100726.97
2023-03-22T04:06:28.978Z,100724.28
2023-03-22T04:08:56.621Z,100719.91
2023-03-22T04:11:23.238Z,100720.72
2023-03-22T04:13:49.760Z,100720.72
2023-03-22T04:16:16.325Z,100712.69
2023-03-22T04:18:42.887Z,100708.22
2023-03-22T04:21:12.075Z,100710.03
2023-03-22T04:23:38.819Z,100703.69
2023-03-22T04:26:05.913Z,100690.31
2023-03-22T04:28:33.480Z,100697.50
2023-03-22T04:31:00.023Z,100700.31
2023-03-22T04:33:26.671Z,100698.47
2023-03-22T04:35:56.765Z,100697.50
2023-03-22T04:38:25.250Z,100695.66
2023-03-22T04:40:51.802Z,100688.47
2023-03-22T04:43:18.970Z,100692.16
2023-03-22T04:45:46.175Z,100686.81
2023-03-22T04:48:12.863Z,100681.44
2023-03-22T04:50:40.338Z,100677.91
2023-03-22T04:53:07.764Z,100675.22
2023-03-22T04:55:34.274Z,100683.25
2023-03-22T04:58:01.120Z,100679.75
2023-03-22T05:00:30.178Z,100681.56
2023-03-22T05:02:57.642Z,100673.56
2023-03-22T05:05:24.387Z,100667.34
2023-03-22T05:07:51.102Z,100671.72
2023-03-22T05:10:17.609Z,100674.38
2023-03-22T05:12:44.103Z,100674.56
2023-03-22T05:15:10.839Z,100677.22
2023-03-22T05:17:37.589Z,100678.06
2023-03-22T05:20:09.451Z,100672.88
2023-03-22T05:22:40.498Z,100677.38
2023-03-22T05:25:08.510Z,100659.50
2023-03-22T05:27:35.129Z,100658.66
2023-03-22T05:30:02.218Z,100661.31
2023-03-22T05:32:29.282Z,100661.31
2023-03-22T05:34:56.316Z,100656.94
2023-03-22T05:37:22.909Z,100667.66
2023-03-22T05:39:49.480Z,100660.63
2023-03-22T05:42:15.973Z,100650.63
2023-03-22T05:44:42.607Z,100652.44
2023-03-22T05:47:09.156Z,100646.22
2023-03-22T05:49:35.709Z,100642.59
2023-03-22T05:52:06.019Z,100636.38
2023-03-22T05:54:32.826Z,100633.56
2023-03-22T05:56:59.378Z,100634.56
2023-03-22T05:59:26.089Z,100634.56
2023-03-22T06:01:52.672Z,100638.91
2023-03-22T06:04:20.963Z,100634.56
2023-03-22T06:06:47.547Z,100643.44
2023-03-22T06:09:17.567Z,100633.56
2023-03-22T06:11:44.561Z,100634.56
2023-03-22T06:14:11.170Z,100638.91
2023-03-22T06:16:37.769Z,100647.78
2023-03-22T06:19:04.367Z,100641.44
2023-03-22T06:21:31.005Z,100641.28
2023-03-22T06:23:57.598Z,100645.66
2023-03-22T06:26:24.218Z,100646.47
2023-03-22T06:28:50.898Z,100640.13
2023-03-22T06:31:17.517Z,100648.16
2023-03-22T06:33:45.450Z,100640.97
2023-03-22T06:36:12.058Z,100643.66
2023-03-22T06:38:38.672Z,100643.50
2023-03-22T06:41:05.360Z,100644.34
2023-03-22T06:43:31.886Z,100643.34
2023-03-22T06:45:58.466Z,100638.84
2023-03-22T06:48:25.177Z,100641.50
2023-03-22T06:50:51.763Z,100652.09
2023-03-22T06:53:18.302Z,100648.41
2023-03-22T06:55:44.865Z,100645.72
2023-03-22T06:58:11.641Z,100635.88
2023-03-22T07:00:39.157Z,100641.06
2023-03-22T07:03:05.902Z,100642.88
2023-03-22T07:05:32.425Z,100641.06
2023-03-22T07:07:58.960Z,100642.88
2023-03-22T07:10:25.533Z,100651.75
2023-03-22T07:12:52.099Z,100641.22
2023-03-22T07:15:20.082Z,100640.22
2023-03-22T07:17:46.578Z,100639.38
2023-03-22T07:20:13.125Z,100642.88
2023-03-22T07:22:39.659Z,100634.84
2023-03-22T07:25:06.478Z,100635.69
2023-03-22T07:27:33.025Z,100638.25
2023-03-22T07:29:59.591Z,100643.59
2023-03-22T07:32:26.223Z,100643.59
2023-03-22T07:34:52.788Z,100637.25
2023-03-22T07:37:19.376Z,100630.03
2023-03-22T07:39:45.953Z,100634.56
2023-03-22T07:42:12.519Z,100622.00
2023-03-22T07:44:39.082Z,100621.88
2023-03-22T07:47:05.864Z,100623.56
2023-03-22T07:49:32.426Z,100627.06
2023-03-22T07:51:59.418Z,100619.88
2023-03-22T07:54:33.519Z,100626.78
2023-03-22T07:57:01.575Z,100621.41
2023-03-22T07:59:28.247Z,100621.56
2023-03-22T08:01:54.967Z,100632.25
2023-03-22T08:04:22.488Z,100627.75
2023-03-22T08:06:49.780Z,100629.59
2023-03-22T08:09:16.437Z,100636.78
2023-03-22T08:11:43.014Z,100629.59
2023-03-22T08:14:09.556Z,100646.50
2023-03-22T08:16:36.148Z,100631.28
2023-03-22T08:19:02.748Z,100636.78
2023-03-22T08:21:29.367Z,100631.41
2023-03-22T08:23:55.960Z,100626.06
2023-03-22T08:26:23.280Z,100631.41
2023-03-22T08:28:49.825Z,100642.13
2023-03-22T08:31:17.412Z,100641.28
2023-03-22T08:33:44.483Z,100636.78
2023-03-22T08:36:14.481Z,100636.78
2023-03-22T08:38:42.471Z,100647.50
2023-03-22T08:41:09.216Z,100634.09
2023-03-22T08:43:35.785Z,100632.44
2023-03-22T08:46:02.552Z,100631.59
2023-03-22T08:48:30.658Z,100640.47
2023-03-22T08:50:58.353Z,100644.97
2023-03-22T08:53:24.970Z,100641.28
2023-03-22T08:56:10.333Z,100623.56
2023-03-22T08:58:36.863Z,100641.28
2023-03-22T09:01:03.463Z,100640.47
2023-03-22T09:03:30.092Z,100630.75
2023-03-22T09:05:56.665Z,100629.03
2023-03-22T09:08:23.175Z,100642.44
2023-03-22T09:10:51.947Z,100630.88
2023-03-22T09:13:19.545Z,100638.06
2023-03-22T09:15:46.547Z,100636.41
2023-03-22T09:18:13.388Z,100630.34
2023-03-22T09:20:40.624Z,100642.06
2023-03-22T09:23:07.353Z,100631.34
2023-03-22T09:25:33.918Z,100624.44
2023-03-22T09:28:00.458Z,100632.47
2023-03-22T09:30:27.263Z,100618.25
2023-03-22T09:32:54.072Z,100621.94
2023-03-22T09:35:20.777Z,100621.94
2023-03-22T09:37:49.273Z,100624.44
2023-03-22T09:40:17.656Z,100619.97
2023-03-22T09:42:51.338Z,100631.50
2023-03-22T09:45:30.008Z,100618.13
2023-03-22T09:47:59.021Z,100605.56
2023-03-22T09:50:31.135Z,100630.50
2023-03-22T09:52:58.446Z,100630.50
2023-03-22T09:55:42.855Z,100626.16
2023-03-22T09:58:36.790Z,100628.00
2023-03-22T10:01:12.021Z,100631.34
2023-03-22T10:04:05.053Z,100635.03
2023-03-22T10:06:32.330Z,100620.63
2023-03-22T10:08:58.810Z,100616.28
2023-03-22T10:11:31.671Z,100637.69
2023-03-22T10:14:04.007Z,100618.13
2023-03-22T10:16:34.848Z,100632.19
2023-03-22T10:19:17.239Z,100620.63
2023-03-22T10:21:46.610Z,100624.97
2023-03-22T10:24:20.220Z,100630.34
2023-03-22T10:26:47.733Z,100636.69
2023-03-22T10:29:37.750Z,100625.84
2023-03-22T10:32:15.232Z,100623.31
2023-03-22T10:34:43.465Z,100622.47
2023-03-22T10:37:16.557Z,100643.06
2023-03-22T10:39:46.688Z,100623.59
2023-03-22T10:42:16.526Z,100616.28
2023-03-22T10:44:50.615Z,100616.41
2023-03-22T10:47:24.400Z,100606.72
2023-03-22T10:49:54.740Z,100606.72
2023-03-22T10:52:30.581Z,100597.53
2023-03-22T10:55:01.265Z,100600.06
2023-03-22T10:57:29.651Z,100596.53
2023-03-22T10:59:57.282Z,100596.53
2023-03-22T11:02:32.715Z,100596.53
2023-03-22T11:05:05.364Z,100603.56
2023-03-22T11:07:43.469Z,100608.91
2023-03-22T11:10:09.918Z,100600.75
2023-03-22T11:12:40.827Z,100607.94
2023-03-22T11:15:19.318Z,100597.25
2023-03-22T11:17:45.853Z,100598.91
2023-03-22T11:20:17.424Z,100598.91
2023-03-22T11:22:47.355Z,100600.47
2023-03-22T11:25:18.700Z,100607.50
2023-03-22T11:28:19.260Z,100607.50
2023-03-22T11:31:06.284Z,100612.84
2023-03-22T11:33:33.522Z,100618.75
2023-03-22T11:36:03.458Z,100625.94
2023-03-22T11:38:30.037Z,100631.28
2023-03-22T11:41:01.544Z,100633.97
2023-03-22T11:43:39.185Z,100644.69
2023-03-22T11:46:08.517Z,100654.38
2023-03-22T11:48:36.827Z,100635.66
2023-03-22T11:51:10.784Z,100637.47
2023-03-22T11:53:40.460Z,100634.81
2023-03-22T11:56:10.898Z,100638.31
2023-03-22T11:58:37.403Z,100633.81
2023-03-22T12:01:05.983Z,100626.59
2023-03-22T12:03:43.289Z,100631.13
2023-03-22T12:06:32.236Z,100631.28
2023-03-22T12:09:04.627Z,100632.81
2023-03-22T12:11:37.787Z,100627.59
2023-03-22T12:14:16.255Z,100636.47
2023-03-22T12:16:57.810Z,100641.00
2023-03-22T12:19:33.200Z,100641.66
2023-03-22T12:22:00.605Z,100641.66
2023-03-22T12:24:30.950Z,100648.88
2023-03-22T12:27:11.012Z,100636.47
2023-03-22T12:29:44.090Z,100633.81
2023-03-22T12:32:21.858Z,100626.78
2023-03-22T12:34:54.939Z,100622.09
2023-03-22T12:37:30.066Z,100626.59
2023-03-22T12:40:19.098Z,100614.06
2023-03-22T12:43:00.910Z,100624.78
2023-03-22T12:45:32.083Z,100608.69
2023-03-22T12:48:21.483Z,100608.69
2023-03-22T12:50:56.570Z,100612.22
2023-03-22T12:53:28.328Z,100604.19
2023-03-22T12:55:56.144Z,100599.66
2023-03-22T12:58:25.789Z,100602.34
2023-03-22T13:01:22.067Z,100612.38
2023-03-22T13:03:53.622Z,100609.41
2023-03-22T13:06:41.830Z,100622.09
2023-03-22T13:09:27.912Z,100621.09
2023-03-22T13:12:19.372Z,100610.53
2023-03-22T13:14:48.883Z,100618.41
2023-03-22T13:17:40.744Z,100619.56
2023-03-22T13:20:07.752Z,100621.97
2023-03-22T13:22:46.227Z,100628.28
2023-03-22T13:25:13.416Z,100613.06
2023-03-22T13:27:45.959Z,100613.06
2023-03-22T13:30:21.831Z,100613.91
2023-03-22T13:32:54.628Z,100622.63
2023-03-22T13:35:28.622Z,100613.59
2023-03-22T13:38:03.100Z,100611.91
2023-03-22T13:40:55.783Z,100609.06
2023-03-22T13:43:31.115Z,100613.59
2023-03-22T13:46:09.762Z,100612.63
2023-03-22T13:48:49.014Z,100605.56
2023-03-22T13:51:30.259Z,100611.75
2023-03-22T13:54:18.803Z,100609.25
2023-03-22T13:57:00.487Z,100624.16
2023-03-22T13:59:27.584Z,100607.09
2023-03-22T14:01:57.475Z,100600.06
2023-03-22T14:04:34.928Z,100602.88
2023-03-22T14:07:40.099Z,100583.28
2023-03-22T14:10:17.776Z,100585.38
2023-03-22T14:13:28.720Z,100579.25
2023-03-22T14:16:21.883Z,100569.13
2023-03-22T14:18:49.891Z,100560.97
2023-03-22T14:21:21.558Z,100556.50
